sensor_id;sensor_type;location;lat;lon;timestamp;P1;durP1;ratioP1;P2;durP2;ratioP2
705;SDS011;21234;48.690;9.016;2023-03-01T00:00:53;14.80;;;10.43;;
705;SDS011;21234;48.690;9.016;2023-03-01T00:03:20;12.20;;;8.60;;
705;SDS011;21234;48.690;9.016;2023-03-01T00:05:47;12.83;;;8.30;;
705;SDS011;21234;48.690;9.016;2023-03-01T00:08:14;9.90;;;8.90;;
705;SDS011;21234;48.690;9.016;2023-03-01T00:10:41;14.67;;;9.43;;
705;SDS011;21234;48.690;9.016;2023-03-01T00:13:09;17.63;;;9.20;;
705;SDS011;21234;48.690;9.016;2023-03-01T00:15:37;15.03;;;9.50;;
705;SDS011;21234;48.690;9.016;2023-03-01T00:18:05;16.23;;;10.10;;
705;SDS011;21234;48.690;9.016;2023-03-01T00:20:31;16.60;;;9.70;;
705;SDS011;21234;48.690;9.016;2023-03-01T00:22:58;13.77;;;8.57;;
705;SDS011;21234;48.690;9.016;2023-03-01T00:25:25;12.70;;;9.20;;
705;SDS011;21234;48.690;9.016;2023-03-01T00:27:51;15.53;;;9.80;;
705;SDS011;21234;48.690;9.016;2023-03-01T00:30:19;17.73;;;9.60;;
705;SDS011;21234;48.690;9.016;2023-03-01T00:32:46;15.53;;;9.10;;
705;SDS011;21234;48.690;9.016;2023-03-01T00:35:13;14.63;;;9.50;;
705;SDS011;21234;48.690;9.016;2023-03-01T00:37:39;16.83;;;9.40;;
705;SDS011;21234;48.690;9.016;2023-03-01T00:40:07;12.73;;;9.50;;
705;SDS011;21234;48.690;9.016;2023-03-01T00:42:35;14.30;;;9.53;;
705;SDS011;21234;48.690;9.016;2023-03-01T00:45:02;13.37;;;9.63;;
705;SDS011;21234;48.690;9.016;2023-03-01T00:47:31;17.33;;;10.87;;
705;SDS011;21234;48.690;9.016;2023-03-01T00:49:57;13.97;;;9.60;;
705;SDS011;21234;48.690;9.016;2023-03-01T00:52:24;17.00;;;10.37;;
705;SDS011;21234;48.690;9.016;2023-03-01T00:54:51;13.90;;;9.60;;
705;SDS011;21234;48.690;9.016;2023-03-01T00:57:19;14.93;;;10.63;;
705;SDS011;21234;48.690;9.016;2023-03-01T00:59:46;13.87;;;11.00;;
705;SDS011;21234;48.690;9.016;2023-03-01T01:02:12;13.87;;;9.37;;
705;SDS011;21234;48.690;9.016;2023-03-01T01:04:41;16.00;;;8.00;;
705;SDS011;21234;48.690;9.016;2023-03-01T01:07:07;15.60;;;10.60;;
705;SDS011;21234;48.690;9.016;2023-03-01T01:09:34;17.33;;;9.87;;
705;SDS011;21234;48.690;9.016;2023-03-01T01:12:02;14.63;;;9.23;;
705;SDS011;21234;48.690;9.016;2023-03-01T01:14:28;13.33;;;9.77;;
705;SDS011;21234;48.690;9.016;2023-03-01T01:16:55;16.27;;;10.07;;
705;SDS011;21234;48.690;9.016;2023-03-01T01:19:22;16.17;;;9.17;;
705;SDS011;21234;48.690;9.016;2023-03-01T01:21:51;14.17;;;8.57;;
705;SDS011;21234;48.690;9.016;2023-03-01T01:24:18;14.60;;;10.20;;
705;SDS011;21234;48.690;9.016;2023-03-01T01:26:45;14.53;;;10.47;;
705;SDS011;21234;48.690;9.016;2023-03-01T01:29:12;14.37;;;8.77;;
705;SDS011;21234;48.690;9.016;2023-03-01T01:31:40;14.20;;;9.40;;
705;SDS011;21234;48.690;9.016;2023-03-01T01:34:08;12.83;;;9.13;;
705;SDS011;21234;48.690;9.016;2023-03-01T01:36:40;14.93;;;8.13;;
705;SDS011;21234;48.690;9.016;2023-03-01T01:39:09;15.10;;;9.80;;
705;SDS011;21234;48.690;9.016;2023-03-01T01:41:38;18.40;;;8.87;;
705;SDS011;21234;48.690;9.016;2023-03-01T01:44:11;16.53;;;9.40;;
705;SDS011;21234;48.690;9.016;2023-03-01T01:46:43;15.43;;;10.10;;
705;SDS011;21234;48.690;9.016;2023-03-01T01:49:16;14.50;;;9.60;;
705;SDS011;21234;48.690;9.016;2023-03-01T01:51:48;12.10;;;9.07;;
705;SDS011;21234;48.690;9.016;2023-03-01T01:54:23;15.57;;;9.47;;
705;SDS011;21234;48.690;9.016;2023-03-01T01:56:55;17.47;;;10.67;;
705;SDS011;21234;48.690;9.016;2023-03-01T01:59:26;13.80;;;9.33;;
705;SDS011;21234;48.690;9.016;2023-03-01T02:01:54;14.40;;;9.57;;
705;SDS011;21234;48.690;9.016;2023-03-01T02:04:22;18.13;;;10.67;;
705;SDS011;21234;48.690;9.016;2023-03-01T02:06:51;11.90;;;9.07;;
705;SDS011;21234;48.690;9.016;2023-03-01T02:09:25;14.63;;;9.10;;
705;SDS011;21234;48.690;9.016;2023-03-01T02:11:53;15.13;;;10.40;;
705;SDS011;21234;48.690;9.016;2023-03-01T02:14:20;17.63;;;9.47;;
705;SDS011;21234;48.690;9.016;2023-03-01T02:16:47;16.80;;;10.27;;
705;SDS011;21234;48.690;9.016;2023-03-01T02:19:18;12.90;;;10.00;;
705;SDS011;21234;48.690;9.016;2023-03-01T02:21:55;15.13;;;9.27;;
705;SDS011;21234;48.690;9.016;2023-03-01T02:24:35;13.40;;;9.70;;
705;SDS011;21234;48.690;9.016;2023-03-01T02:27:12;15.17;;;9.67;;
705;SDS011;21234;48.690;9.016;2023-03-01T02:29:41;16.87;;;10.50;;
705;SDS011;21234;48.690;9.016;2023-03-01T02:32:09;15.73;;;10.00;;
705;SDS011;21234;48.690;9.016;2023-03-01T02:34:37;16.63;;;11.20;;
705;SDS011;21234;48.690;9.016;2023-03-01T02:37:06;16.90;;;10.20;;
705;SDS011;21234;48.690;9.016;2023-03-01T02:39:39;15.63;;;10.60;;
705;SDS011;21234;48.690;9.016;2023-03-01T02:42:10;19.80;;;10.60;;
705;SDS011;21234;48.690;9.016;2023-03-01T02:44:42;17.17;;;10.40;;
705;SDS011;21234;48.690;9.016;2023-03-01T02:47:08;16.53;;;9.60;;
705;SDS011;21234;48.690;9.016;2023-03-01T02:49:36;16.60;;;10.40;;
705;SDS011;21234;48.690;9.016;2023-03-01T02:54:58;14.57;;;10.33;;
705;SDS011;21234;48.690;9.016;2023-03-01T02:57:29;12.27;;;9.20;;
705;SDS011;21234;48.690;9.016;2023-03-01T02:59:59;16.13;;;9.27;;
705;SDS011;21234;48.690;9.016;2023-03-01T03:02:32;21.17;;;10.83;;
705;SDS011;21234;48.690;9.016;2023-03-01T03:05:04;13.40;;;10.53;;
705;SDS011;21234;48.690;9.016;2023-03-01T03:07:33;16.37;;;11.50;;
705;SDS011;21234;48.690;9.016;2023-03-01T03:10:02;21.37;;;10.03;;
705;SDS011;21234;48.690;9.016;2023-03-01T03:12:30;15.53;;;10.37;;
705;SDS011;21234;48.690;9.016;2023-03-01T03:14:58;15.67;;;10.50;;
705;SDS011;21234;48.690;9.016;2023-03-01T03:17:25;16.20;;;11.17;;
705;SDS011;21234;48.690;9.016;2023-03-01T03:19:51;19.33;;;11.77;;
705;SDS011;21234;48.690;9.016;2023-03-01T03:22:18;14.43;;;10.00;;
705;SDS011;21234;48.690;9.016;2023-03-01T03:24:45;16.93;;;10.60;;
705;SDS011;21234;48.690;9.016;2023-03-01T03:27:11;12.10;;;9.70;;
705;SDS011;21234;48.690;9.016;2023-03-01T03:29:38;17.50;;;9.70;;
705;SDS011;21234;48.690;9.016;2023-03-01T03:32:06;17.17;;;11.57;;
705;SDS011;21234;48.690;9.016;2023-03-01T03:34:33;16.67;;;11.20;;
705;SDS011;21234;48.690;9.016;2023-03-01T03:36:59;19.77;;;10.73;;
705;SDS011;21234;48.690;9.016;2023-03-01T03:39:26;18.60;;;11.17;;
705;SDS011;21234;48.690;9.016;2023-03-01T03:41:54;14.70;;;9.70;;
705;SDS011;21234;48.690;9.016;2023-03-01T03:44:21;13.07;;;9.47;;
705;SDS011;21234;48.690;9.016;2023-03-01T03:46:47;17.57;;;9.70;;
705;SDS011;21234;48.690;9.016;2023-03-01T03:49:15;20.73;;;10.87;;
705;SDS011;21234;48.690;9.016;2023-03-01T03:51:42;21.20;;;12.40;;
705;SDS011;21234;48.690;9.016;2023-03-01T03:54:11;13.47;;;10.63;;
705;SDS011;21234;48.690;9.016;2023-03-01T03:56:38;14.60;;;10.30;;
705;SDS011;21234;48.690;9.016;2023-03-01T03:59:04;14.90;;;10.87;;
705;SDS011;21234;48.690;9.016;2023-03-01T04:01:31;20.27;;;12.00;;
705;SDS011;21234;48.690;9.016;2023-03-01T04:03:58;17.23;;;10.27;;
705;SDS011;21234;48.690;9.016;2023-03-01T04:06:30;13.93;;;9.60;;
705;SDS011;21234;48.690;9.016;2023-03-01T04:08:57;20.53;;;11.57;;
705;SDS011;21234;48.690;9.016;2023-03-01T04:11:25;17.17;;;10.87;;
705;SDS011;21234;48.690;9.016;2023-03-01T04:13:53;13.60;;;10.43;;
705;SDS011;21234;48.690;9.016;2023-03-01T04:16:21;15.53;;;11.17;;
705;SDS011;21234;48.690;9.016;2023-03-01T04:18:47;18.53;;;10.90;;
705;SDS011;21234;48.690;9.016;2023-03-01T04:21:14;13.73;;;9.90;;
705;SDS011;21234;48.690;9.016;2023-03-01T04:23:42;17.60;;;12.20;;
705;SDS011;21234;48.690;9.016;2023-03-01T04:26:09;16.33;;;10.73;;
705;SDS011;21234;48.690;9.016;2023-03-01T04:28:36;14.77;;;11.50;;
705;SDS011;21234;48.690;9.016;2023-03-01T04:31:05;19.33;;;9.87;;
705;SDS011;21234;48.690;9.016;2023-03-01T04:33:39;15.80;;;10.23;;
705;SDS011;21234;48.690;9.016;2023-03-01T04:36:07;18.50;;;11.27;;
705;SDS011;21234;48.690;9.016;2023-03-01T04:38:35;20.00;;;11.80;;
705;SDS011;21234;48.690;9.016;2023-03-01T04:41:04;17.83;;;11.30;;
705;SDS011;21234;48.690;9.016;2023-03-01T04:43:31;17.80;;;10.63;;
705;SDS011;21234;48.690;9.016;2023-03-01T04:46:02;19.80;;;12.23;;
705;SDS011;21234;48.690;9.016;2023-03-01T04:48:29;16.33;;;12.00;;
705;SDS011;21234;48.690;9.016;2023-03-01T04:50:58;17.90;;;12.67;;
705;SDS011;21234;48.690;9.016;2023-03-01T04:53:25;13.30;;;9.80;;
705;SDS011;21234;48.690;9.016;2023-03-01T04:55:53;17.57;;;12.10;;
705;SDS011;21234;48.690;9.016;2023-03-01T04:58:21;16.47;;;11.00;;
705;SDS011;21234;48.690;9.016;2023-03-01T05:00:48;24.70;;;12.70;;
705;SDS011;21234;48.690;9.016;2023-03-01T05:03:15;18.33;;;12.50;;
705;SDS011;21234;48.690;9.016;2023-03-01T05:05:43;19.80;;;12.87;;
705;SDS011;21234;48.690;9.016;2023-03-01T05:08:11;16.90;;;10.83;;
705;SDS011;21234;48.690;9.016;2023-03-01T05:10:43;19.27;;;11.70;;
705;SDS011;21234;48.690;9.016;2023-03-01T05:13:11;19.40;;;11.50;;
705;SDS011;21234;48.690;9.016;2023-03-01T05:15:41;19.40;;;11.40;;
705;SDS011;21234;48.690;9.016;2023-03-01T05:18:08;17.27;;;10.53;;
705;SDS011;21234;48.690;9.016;2023-03-01T05:20:36;22.57;;;12.40;;
705;SDS011;21234;48.690;9.016;2023-03-01T05:23:04;17.83;;;11.20;;
705;SDS011;21234;48.690;9.016;2023-03-01T05:25:32;18.33;;;12.50;;
705;SDS011;21234;48.690;9.016;2023-03-01T05:28:00;15.33;;;10.80;;
705;SDS011;21234;48.690;9.016;2023-03-01T05:30:29;22.27;;;12.03;;
705;SDS011;21234;48.690;9.016;2023-03-01T05:32:59;18.17;;;13.77;;
705;SDS011;21234;48.690;9.016;2023-03-01T05:35:26;20.63;;;12.90;;
705;SDS011;21234;48.690;9.016;2023-03-01T05:37:54;18.87;;;11.03;;
705;SDS011;21234;48.690;9.016;2023-03-01T05:40:21;18.70;;;11.20;;
705;SDS011;21234;48.690;9.016;2023-03-01T05:42:50;18.33;;;11.77;;
705;SDS011;21234;48.690;9.016;2023-03-01T05:45:18;19.33;;;11.60;;
705;SDS011;21234;48.690;9.016;2023-03-01T05:47:45;21.20;;;12.23;;
705;SDS011;21234;48.690;9.016;2023-03-01T05:50:15;21.47;;;12.40;;
705;SDS011;21234;48.690;9.016;2023-03-01T05:52:45;16.50;;;11.50;;
705;SDS011;21234;48.690;9.016;2023-03-01T05:55:13;24.83;;;13.40;;
705;SDS011;21234;48.690;9.016;2023-03-01T05:57:40;19.37;;;11.50;;
705;SDS011;21234;48.690;9.016;2023-03-01T06:00:07;17.17;;;12.13;;
705;SDS011;21234;48.690;9.016;2023-03-01T06:02:35;17.90;;;11.77;;
705;SDS011;21234;48.690;9.016;2023-03-01T06:05:03;17.13;;;11.53;;
705;SDS011;21234;48.690;9.016;2023-03-01T06:07:31;19.27;;;12.70;;
705;SDS011;21234;48.690;9.016;2023-03-01T06:09:58;19.73;;;11.63;;
705;SDS011;21234;48.690;9.016;2023-03-01T06:12:25;18.03;;;12.10;;
705;SDS011;21234;48.690;9.016;2023-03-01T06:14:51;18.83;;;11.57;;
705;SDS011;21234;48.690;9.016;2023-03-01T06:17:18;14.27;;;10.90;;
705;SDS011;21234;48.690;9.016;2023-03-01T06:19:46;23.50;;;13.10;;
705;SDS011;21234;48.690;9.016;2023-03-01T06:22:13;18.47;;;14.00;;
705;SDS011;21234;48.690;9.016;2023-03-01T06:24:41;17.23;;;11.40;;
705;SDS011;21234;48.690;9.016;2023-03-01T06:27:07;18.60;;;10.90;;
705;SDS011;21234;48.690;9.016;2023-03-01T06:29:34;23.50;;;12.63;;
705;SDS011;21234;48.690;9.016;2023-03-01T06:32:02;18.10;;;11.87;;
705;SDS011;21234;48.690;9.016;2023-03-01T06:34:29;19.57;;;13.30;;
705;SDS011;21234;48.690;9.016;2023-03-01T06:36:56;16.10;;;12.50;;
705;SDS011;21234;48.690;9.016;2023-03-01T06:39:22;18.23;;;11.60;;
705;SDS011;21234;48.690;9.016;2023-03-01T06:41:50;18.20;;;10.67;;
705;SDS011;21234;48.690;9.016;2023-03-01T06:44:17;16.63;;;10.97;;
705;SDS011;21234;48.690;9.016;2023-03-01T06:46:44;17.87;;;11.60;;
705;SDS011;21234;48.690;9.016;2023-03-01T06:49:10;17.87;;;11.47;;
705;SDS011;21234;48.690;9.016;2023-03-01T06:51:37;26.90;;;13.37;;
705;SDS011;21234;48.690;9.016;2023-03-01T06:54:04;16.43;;;10.40;;
705;SDS011;21234;48.690;9.016;2023-03-01T06:56:31;17.90;;;11.83;;
705;SDS011;21234;48.690;9.016;2023-03-01T06:59:00;16.00;;;12.13;;
705;SDS011;21234;48.690;9.016;2023-03-01T07:01:27;18.07;;;10.50;;
705;SDS011;21234;48.690;9.016;2023-03-01T07:03:54;21.50;;;13.83;;
705;SDS011;21234;48.690;9.016;2023-03-01T07:06:21;17.27;;;11.83;;
705;SDS011;21234;48.690;9.016;2023-03-01T07:08:48;20.00;;;13.57;;
705;SDS011;21234;48.690;9.016;2023-03-01T07:11:15;20.67;;;12.33;;
705;SDS011;21234;48.690;9.016;2023-03-01T07:13:42;17.93;;;11.57;;
705;SDS011;21234;48.690;9.016;2023-03-01T07:16:10;18.73;;;10.27;;
705;SDS011;21234;48.690;9.016;2023-03-01T07:18:37;17.00;;;12.23;;
705;SDS011;21234;48.690;9.016;2023-03-01T07:21:04;17.87;;;12.40;;
705;SDS011;21234;48.690;9.016;2023-03-01T07:23:32;15.43;;;10.87;;
705;SDS011;21234;48.690;9.016;2023-03-01T07:25:58;18.70;;;12.20;;
705;SDS011;21234;48.690;9.016;2023-03-01T07:28:25;15.70;;;11.17;;
705;SDS011;21234;48.690;9.016;2023-03-01T07:30:52;15.40;;;11.00;;
705;SDS011;21234;48.690;9.016;2023-03-01T07:33:21;20.40;;;12.17;;
705;SDS011;21234;48.690;9.016;2023-03-01T07:35:48;19.40;;;12.07;;
705;SDS011;21234;48.690;9.016;2023-03-01T07:38:14;15.67;;;11.07;;
705;SDS011;21234;48.690;9.016;2023-03-01T07:40:41;18.07;;;11.63;;
705;SDS011;21234;48.690;9.016;2023-03-01T07:43:08;17.13;;;12.50;;
705;SDS011;21234;48.690;9.016;2023-03-01T07:45:34;13.60;;;11.63;;
705;SDS011;21234;48.690;9.016;2023-03-01T07:48:01;14.73;;;11.77;;
705;SDS011;21234;48.690;9.016;2023-03-01T07:50:29;14.00;;;11.77;;
705;SDS011;21234;48.690;9.016;2023-03-01T07:52:57;16.97;;;11.33;;
705;SDS011;21234;48.690;9.016;2023-03-01T07:55:23;17.60;;;12.47;;
705;SDS011;21234;48.690;9.016;2023-03-01T07:57:50;24.90;;;13.87;;
705;SDS011;21234;48.690;9.016;2023-03-01T08:00:17;18.13;;;13.30;;
705;SDS011;21234;48.690;9.016;2023-03-01T08:02:44;17.50;;;12.97;;
705;SDS011;21234;48.690;9.016;2023-03-01T08:05:11;21.20;;;13.17;;
705;SDS011;21234;48.690;9.016;2023-03-01T08:07:39;18.80;;;11.80;;
705;SDS011;21234;48.690;9.016;2023-03-01T08:10:06;20.20;;;12.63;;
705;SDS011;21234;48.690;9.016;2023-03-01T08:12:33;24.43;;;12.67;;
705;SDS011;21234;48.690;9.016;2023-03-01T08:15:00;18.80;;;11.80;;
705;SDS011;21234;48.690;9.016;2023-03-01T08:17:26;24.53;;;14.13;;
705;SDS011;21234;48.690;9.016;2023-03-01T08:19:53;19.60;;;13.47;;
705;SDS011;21234;48.690;9.016;2023-03-01T08:22:20;20.70;;;14.20;;
705;SDS011;21234;48.690;9.016;2023-03-01T08:24:48;19.47;;;13.07;;
705;SDS011;21234;48.690;9.016;2023-03-01T08:27:14;18.43;;;11.90;;
705;SDS011;21234;48.690;9.016;2023-03-01T08:29:41;23.13;;;13.60;;
705;SDS011;21234;48.690;9.016;2023-03-01T08:32:08;20.83;;;12.43;;
705;SDS011;21234;48.690;9.016;2023-03-01T08:34:35;20.30;;;12.63;;
705;SDS011;21234;48.690;9.016;2023-03-01T08:37:01;23.03;;;11.40;;
705;SDS011;21234;48.690;9.016;2023-03-01T08:39:28;18.30;;;12.33;;
705;SDS011;21234;48.690;9.016;2023-03-01T08:41:56;19.90;;;13.43;;
705;SDS011;21234;48.690;9.016;2023-03-01T08:44:23;17.00;;;11.53;;
705;SDS011;21234;48.690;9.016;2023-03-01T08:46:50;18.83;;;13.03;;
705;SDS011;21234;48.690;9.016;2023-03-01T08:49:18;14.77;;;12.00;;
705;SDS011;21234;48.690;9.016;2023-03-01T08:51:46;15.77;;;13.00;;
705;SDS011;21234;48.690;9.016;2023-03-01T08:54:14;23.50;;;13.87;;
705;SDS011;21234;48.690;9.016;2023-03-01T08:56:43;20.50;;;11.40;;
705;SDS011;21234;48.690;9.016;2023-03-01T08:59:12;25.83;;;13.00;;
705;SDS011;21234;48.690;9.016;2023-03-01T09:01:40;14.67;;;11.67;;
705;SDS011;21234;48.690;9.016;2023-03-01T09:04:08;21.27;;;12.17;;
705;SDS011;21234;48.690;9.016;2023-03-01T09:06:35;16.60;;;12.00;;
705;SDS011;21234;48.690;9.016;2023-03-01T09:09:02;21.70;;;14.10;;
705;SDS011;21234;48.690;9.016;2023-03-01T09:11:29;20.53;;;13.00;;
705;SDS011;21234;48.690;9.016;2023-03-01T09:13:56;18.63;;;13.47;;
705;SDS011;21234;48.690;9.016;2023-03-01T09:16:24;17.53;;;12.67;;
705;SDS011;21234;48.690;9.016;2023-03-01T09:18:52;19.33;;;13.73;;
705;SDS011;21234;48.690;9.016;2023-03-01T09:21:20;17.80;;;12.20;;
705;SDS011;21234;48.690;9.016;2023-03-01T09:23:48;18.23;;;13.97;;
705;SDS011;21234;48.690;9.016;2023-03-01T09:26:16;18.33;;;12.80;;
705;SDS011;21234;48.690;9.016;2023-03-01T09:28:47;19.07;;;13.90;;
705;SDS011;21234;48.690;9.016;2023-03-01T09:31:14;21.20;;;12.73;;
705;SDS011;21234;48.690;9.016;2023-03-01T09:33:45;24.13;;;13.63;;
705;SDS011;21234;48.690;9.016;2023-03-01T09:36:13;18.80;;;12.80;;
705;SDS011;21234;48.690;9.016;2023-03-01T09:38:41;19.97;;;13.40;;
705;SDS011;21234;48.690;9.016;2023-03-01T09:41:11;17.40;;;12.33;;
705;SDS011;21234;48.690;9.016;2023-03-01T09:43:52;17.33;;;13.40;;
705;SDS011;21234;48.690;9.016;2023-03-01T09:46:24;16.00;;;12.23;;
705;SDS011;21234;48.690;9.016;2023-03-01T09:48:55;20.50;;;13.60;;
705;SDS011;21234;48.690;9.016;2023-03-01T09:51:25;21.93;;;13.67;;
705;SDS011;21234;48.690;9.016;2023-03-01T09:53:54;18.83;;;11.90;;
705;SDS011;21234;48.690;9.016;2023-03-01T09:56:24;20.30;;;14.13;;
705;SDS011;21234;48.690;9.016;2023-03-01T09:58:57;23.30;;;13.63;;
705;SDS011;21234;48.690;9.016;2023-03-01T10:01:34;22.13;;;14.40;;
705;SDS011;21234;48.690;9.016;2023-03-01T10:04:09;16.73;;;12.17;;
705;SDS011;21234;48.690;9.016;2023-03-01T10:06:51;21.90;;;12.33;;
705;SDS011;21234;48.690;9.016;2023-03-01T10:09:24;23.40;;;12.27;;
705;SDS011;21234;48.690;9.016;2023-03-01T10:12:00;20.33;;;13.60;;
705;SDS011;21234;48.690;9.016;2023-03-01T10:14:32;18.37;;;12.60;;
705;SDS011;21234;48.690;9.016;2023-03-01T10:17:03;22.40;;;12.23;;
705;SDS011;21234;48.690;9.016;2023-03-01T10:19:38;20.50;;;13.90;;
705;SDS011;21234;48.690;9.016;2023-03-01T10:22:10;21.40;;;13.47;;
705;SDS011;21234;48.690;9.016;2023-03-01T10:24:41;18.57;;;13.83;;
705;SDS011;21234;48.690;9.016;2023-03-01T10:27:09;16.73;;;12.70;;
705;SDS011;21234;48.690;9.016;2023-03-01T10:29:42;20.70;;;13.40;;
705;SDS011;21234;48.690;9.016;2023-03-01T10:32:15;20.00;;;13.07;;
705;SDS011;21234;48.690;9.016;2023-03-01T10:34:45;18.73;;;12.40;;
705;SDS011;21234;48.690;9.016;2023-03-01T10:37:12;23.37;;;13.50;;
705;SDS011;21234;48.690;9.016;2023-03-01T10:39:56;20.13;;;12.63;;
705;SDS011;21234;48.690;9.016;2023-03-01T10:42:26;19.93;;;13.37;;
705;SDS011;21234;48.690;9.016;2023-03-01T10:44:55;15.57;;;11.50;;
705;SDS011;21234;48.690;9.016;2023-03-01T10:47:23;18.43;;;12.80;;
705;SDS011;21234;48.690;9.016;2023-03-01T10:50:02;16.47;;;11.60;;
705;SDS011;21234;48.690;9.016;2023-03-01T10:52:32;21.57;;;14.40;;
705;SDS011;21234;48.690;9.016;2023-03-01T10:55:01;22.23;;;13.67;;
705;SDS011;21234;48.690;9.016;2023-03-01T10:57:46;19.63;;;13.63;;
705;SDS011;21234;48.690;9.016;2023-03-01T11:00:21;24.37;;;13.30;;
705;SDS011;21234;48.690;9.016;2023-03-01T11:02:50;19.60;;;12.57;;
705;SDS011;21234;48.690;9.016;2023-03-01T11:05:30;19.13;;;13.20;;
705;SDS011;21234;48.690;9.016;2023-03-01T11:07:59;18.13;;;12.60;;
705;SDS011;21234;48.690;9.016;2023-03-01T11:10:27;17.63;;;12.20;;
705;SDS011;21234;48.690;9.016;2023-03-01T11:13:05;21.43;;;14.00;;
705;SDS011;21234;48.690;9.016;2023-03-01T11:15:34;21.00;;;13.50;;
705;SDS011;21234;48.690;9.016;2023-03-01T11:18:02;17.87;;;13.53;;
705;SDS011;21234;48.690;9.016;2023-03-01T11:20:31;18.87;;;12.53;;
705;SDS011;21234;48.690;9.016;2023-03-01T11:23:01;17.90;;;12.73;;
705;SDS011;21234;48.690;9.016;2023-03-01T11:25:32;17.80;;;12.07;;
705;SDS011;21234;48.690;9.016;2023-03-01T11:28:02;32.23;;;16.40;;
705;SDS011;21234;48.690;9.016;2023-03-01T11:30:31;20.27;;;13.87;;
705;SDS011;21234;48.690;9.016;2023-03-01T11:33:08;18.87;;;12.30;;
705;SDS011;21234;48.690;9.016;2023-03-01T11:35:46;23.90;;;13.57;;
705;SDS011;21234;48.690;9.016;2023-03-01T11:38:21;17.53;;;13.63;;
705;SDS011;21234;48.690;9.016;2023-03-01T11:40:50;18.23;;;12.70;;
705;SDS011;21234;48.690;9.016;2023-03-01T11:43:28;20.47;;;13.53;;
705;SDS011;21234;48.690;9.016;2023-03-01T11:46:11;21.70;;;13.97;;
705;SDS011;21234;48.690;9.016;2023-03-01T11:49:04;20.10;;;12.00;;
705;SDS011;21234;48.690;9.016;2023-03-01T11:51:45;19.23;;;13.30;;
705;SDS011;21234;48.690;9.016;2023-03-01T11:54:21;20.10;;;14.07;;
705;SDS011;21234;48.690;9.016;2023-03-01T11:57:00;19.23;;;12.93;;
705;SDS011;21234;48.690;9.016;2023-03-01T11:59:37;20.60;;;13.00;;
705;SDS011;21234;48.690;9.016;2023-03-01T12:05:42;21.50;;;13.53;;
705;SDS011;21234;48.690;9.016;2023-03-01T12:08:31;18.83;;;13.00;;
705;SDS011;21234;48.690;9.016;2023-03-01T12:11:03;16.47;;;10.73;;
705;SDS011;21234;48.690;9.016;2023-03-01T12:13:55;17.80;;;12.20;;
705;SDS011;21234;48.690;9.016;2023-03-01T12:16:36;17.70;;;12.97;;
705;SDS011;21234;48.690;9.016;2023-03-01T12:22:18;19.63;;;11.87;;
705;SDS011;21234;48.690;9.016;2023-03-01T12:25:02;17.83;;;11.90;;
705;SDS011;21234;48.690;9.016;2023-03-01T12:28:04;16.57;;;12.10;;
705;SDS011;21234;48.690;9.016;2023-03-01T12:30:45;21.57;;;13.77;;
705;SDS011;21234;48.690;9.016;2023-03-01T12:33:22;15.33;;;10.87;;
705;SDS011;21234;48.690;9.016;2023-03-01T12:36:07;15.10;;;11.03;;
705;SDS011;21234;48.690;9.016;2023-03-01T12:38:45;19.07;;;12.70;;
705;SDS011;21234;48.690;9.016;2023-03-01T12:41:29;14.97;;;12.17;;
705;SDS011;21234;48.690;9.016;2023-03-01T12:44:10;18.93;;;12.43;;
705;SDS011;21234;48.690;9.016;2023-03-01T12:46:51;20.23;;;12.90;;
705;SDS011;21234;48.690;9.016;2023-03-01T12:49:25;16.57;;;11.73;;
705;SDS011;21234;48.690;9.016;2023-03-01T12:51:59;15.00;;;10.10;;
705;SDS011;21234;48.690;9.016;2023-03-01T12:54:30;18.63;;;11.83;;
705;SDS011;21234;48.690;9.016;2023-03-01T12:57:02;15.67;;;12.30;;
705;SDS011;21234;48.690;9.016;2023-03-01T12:59:34;20.07;;;12.90;;
705;SDS011;21234;48.690;9.016;2023-03-01T13:02:09;16.53;;;11.70;;
705;SDS011;21234;48.690;9.016;2023-03-01T13:04:47;16.80;;;11.30;;
705;SDS011;21234;48.690;9.016;2023-03-01T13:07:28;14.53;;;11.03;;
705;SDS011;21234;48.690;9.016;2023-03-01T13:10:06;14.50;;;10.87;;
705;SDS011;21234;48.690;9.016;2023-03-01T13:15:38;15.20;;;10.90;;
705;SDS011;21234;48.690;9.016;2023-03-01T13:20:55;14.63;;;9.90;;
705;SDS011;21234;48.690;9.016;2023-03-01T13:23:24;18.60;;;10.73;;
705;SDS011;21234;48.690;9.016;2023-03-01T13:26:06;14.83;;;12.30;;
705;SDS011;21234;48.690;9.016;2023-03-01T13:28:40;13.80;;;10.70;;
705;SDS011;21234;48.690;9.016;2023-03-01T13:34:51;14.80;;;10.03;;
705;SDS011;21234;48.690;9.016;2023-03-01T13:37:20;12.87;;;10.33;;
705;SDS011;21234;48.690;9.016;2023-03-01T13:39:58;12.17;;;9.67;;
705;SDS011;21234;48.690;9.016;2023-03-01T13:42:36;11.77;;;10.33;;
705;SDS011;21234;48.690;9.016;2023-03-01T13:45:15;12.70;;;9.70;;
705;SDS011;21234;48.690;9.016;2023-03-01T13:47:45;11.57;;;9.37;;
705;SDS011;21234;48.690;9.016;2023-03-01T13:50:18;19.07;;;11.17;;
705;SDS011;21234;48.690;9.016;2023-03-01T13:52:48;13.97;;;9.40;;
705;SDS011;21234;48.690;9.016;2023-03-01T13:55:19;14.20;;;10.13;;
705;SDS011;21234;48.690;9.016;2023-03-01T13:57:50;11.97;;;8.77;;
705;SDS011;21234;48.690;9.016;2023-03-01T14:00:31;13.77;;;10.23;;
705;SDS011;21234;48.690;9.016;2023-03-01T14:03:05;14.63;;;11.70;;
705;SDS011;21234;48.690;9.016;2023-03-01T14:05:35;11.67;;;9.63;;
705;SDS011;21234;48.690;9.016;2023-03-01T14:08:03;16.87;;;10.97;;
705;SDS011;21234;48.690;9.016;2023-03-01T14:10:32;15.57;;;11.87;;
705;SDS011;21234;48.690;9.016;2023-03-01T14:13:09;16.20;;;11.00;;
705;SDS011;21234;48.690;9.016;2023-03-01T14:15:49;15.20;;;11.73;;
705;SDS011;21234;48.690;9.016;2023-03-01T14:18:28;14.00;;;10.50;;
705;SDS011;21234;48.690;9.016;2023-03-01T14:21:12;15.87;;;11.23;;
705;SDS011;21234;48.690;9.016;2023-03-01T14:23:40;13.27;;;11.80;;
705;SDS011;21234;48.690;9.016;2023-03-01T14:26:08;17.30;;;11.20;;
705;SDS011;21234;48.690;9.016;2023-03-01T14:28:37;17.40;;;12.00;;
705;SDS011;21234;48.690;9.016;2023-03-01T14:34:01;13.97;;;11.40;;
705;SDS011;21234;48.690;9.016;2023-03-01T14:36:28;17.37;;;12.40;;
705;SDS011;21234;48.690;9.016;2023-03-01T14:38:56;15.70;;;11.20;;
705;SDS011;21234;48.690;9.016;2023-03-01T14:41:29;15.40;;;12.27;;
705;SDS011;21234;48.690;9.016;2023-03-01T14:43:59;13.50;;;11.30;;
705;SDS011;21234;48.690;9.016;2023-03-01T14:46:28;18.20;;;12.13;;
705;SDS011;21234;48.690;9.016;2023-03-01T14:49:03;14.10;;;12.50;;
705;SDS011;21234;48.690;9.016;2023-03-01T14:51:35;15.90;;;12.03;;
705;SDS011;21234;48.690;9.016;2023-03-01T14:54:04;17.27;;;11.90;;
705;SDS011;21234;48.690;9.016;2023-03-01T14:56:44;19.73;;;12.77;;
705;SDS011;21234;48.690;9.016;2023-03-01T14:59:13;16.80;;;13.23;;
705;SDS011;21234;48.690;9.016;2023-03-01T15:01:40;18.80;;;12.23;;
705;SDS011;21234;48.690;9.016;2023-03-01T15:04:11;17.63;;;12.00;;
705;SDS011;21234;48.690;9.016;2023-03-01T15:06:39;20.07;;;12.97;;
705;SDS011;21234;48.690;9.016;2023-03-01T15:09:07;19.57;;;13.60;;
705;SDS011;21234;48.690;9.016;2023-03-01T15:11:40;18.87;;;13.43;;
705;SDS011;21234;48.690;9.016;2023-03-01T15:16:54;17.27;;;13.10;;
705;SDS011;21234;48.690;9.016;2023-03-01T15:19:23;20.27;;;13.10;;
705;SDS011;21234;48.690;9.016;2023-03-01T15:21:53;20.27;;;13.97;;
705;SDS011;21234;48.690;9.016;2023-03-01T15:24:23;20.20;;;13.60;;
705;SDS011;21234;48.690;9.016;2023-03-01T15:26:53;17.17;;;12.37;;
705;SDS011;21234;48.690;9.016;2023-03-01T15:29:24;17.67;;;13.03;;
705;SDS011;21234;48.690;9.016;2023-03-01T15:31:55;17.23;;;13.57;;